Time;durP1;ratioP1;P1;durP2;ratioP2;P2;SDS_P1;SDS_P2;PMS_P1;PMS_P2;Temp;Humidity;BMP_temperature;BMP_pressure;BME280_temperature;BME280_humidity;BME280_pressure;Samples;Min_cycle;Max_cycle;Signal;HPM_P1;HPM_P2
2023/06/11 00:01:56;;;;;;;12.73;7.55;;;18.90;99.90;;;;;;5018703;28;20049;-73
2023/06/11 00:04:26;;;;;;;11.65;7.30;;;18.90;99.90;;;;;;5002068;28;20100;-73
2023/06/11 00:07:00;;;;;;;11.98;7.63;;;18.90;99.90;;;;;;5001922;28;20096;-73
2023/06/11 00:09:26;;;;;;;11.35;7.53;;;18.90;99.90;;;;;;5018623;28;20053;-73
2023/06/11 00:11:53;;;;;;;11.65;8.15;;;19.00;99.90;;;;;;5018369;28;20046;-73
2023/06/11 00:14:23;;;;;;;10.75;7.80;;;19.10;99.90;;;;;;5018202;28;20132;-73
2023/06/11 00:16:49;;;;;;;9.52;7.47;;;19.10;99.90;;;;;;5002653;28;20117;-73
2023/06/11 00:19:17;;;;;;;12.20;7.60;;;19.00;99.90;;;;;;5018171;28;20093;-72
2023/06/11 00:21:45;;;;;;;12.32;7.55;;;19.00;99.90;;;;;;5018199;28;20080;-72
2023/06/11 00:24:12;;;;;;;9.93;6.82;;;18.90;99.90;;;;;;5018186;28;20088;-72
2023/06/11 00:26:38;;;;;;;10.25;7.22;;;18.90;99.90;;;;;;5018174;28;20148;-72
2023/06/11 00:29:05;;;;;;;9.82;7.38;;;19.00;99.90;;;;;;5018437;28;20038;-72
2023/06/11 00:31:31;;;;;;;11.65;7.50;;;18.90;99.90;;;;;;5017999;28;20093;-72
2023/06/11 00:33:59;;;;;;;9.85;6.65;;;18.90;99.90;;;;;;4969655;28;20046;-72
2023/06/11 00:36:26;;;;;;;9.80;7.10;;;18.80;99.90;;;;;;5018288;28;20498;-73
2023/06/11 00:38:56;;;;;;;10.02;7.07;;;18.90;99.90;;;;;;5002052;28;20041;-73
2023/06/11 00:41:24;;;;;;;11.43;7.97;;;18.90;99.90;;;;;;5018016;28;20037;-72
2023/06/11 00:43:54;;;;;;;9.35;7.50;;;18.80;99.90;;;;;;5018030;28;20081;-73
2023/06/11 00:46:21;;;;;;;10.73;6.78;;;18.80;99.90;;;;;;5018024;28;20046;-73
2023/06/11 00:48:49;;;;;;;9.93;7.50;;;18.80;99.90;;;;;;5002049;28;20045;-73
2023/06/11 00:51:17;;;;;;;8.50;6.65;;;18.80;99.90;;;;;;5018036;28;20045;-73
2023/06/11 00:53:43;;;;;;;8.95;7.00;;;18.70;99.90;;;;;;5001918;28;20038;-72
2023/06/11 00:56:09;;;;;;;9.02;6.90;;;18.70;99.90;;;;;;5001488;28;20034;-72
2023/06/11 00:58:35;;;;;;;10.23;7.60;;;18.70;99.90;;;;;;5001563;28;20042;-72
2023/06/11 01:01:05;;;;;;;8.85;6.60;;;18.70;99.90;;;;;;5015194;28;20042;-73
2023/06/11 01:03:33;;;;;;;10.95;7.32;;;18.70;99.90;;;;;;5014675;28;20050;-72
2023/06/11 01:06:06;;;;;;;11.10;7.30;;;18.60;99.90;;;;;;5014970;28;20555;-73
2023/06/11 01:08:38;;;;;;;12.68;7.82;;;18.60;99.90;;;;;;5014783;28;20081;-73
2023/06/11 01:11:08;;;;;;;9.90;7.07;;;18.50;99.90;;;;;;5014594;28;20037;-73
2023/06/11 01:13:36;;;;;;;9.98;7.20;;;18.50;99.90;;;;;;5014500;28;20042;-72
2023/06/11 01:16:14;;;;;;;11.65;7.53;;;18.40;99.90;;;;;;5014528;28;20099;-72
2023/06/11 01:18:58;;;;;;;10.57;7.45;;;18.40;99.90;;;;;;4998232;28;20041;-73
2023/06/11 01:21:29;;;;;;;10.75;7.93;;;18.40;99.90;;;;;;4997947;28;20041;-73
2023/06/11 01:24:14;;;;;;;10.90;7.82;;;18.40;99.90;;;;;;5014670;28;20398;-73
2023/06/11 01:27:13;;;;;;;10.52;7.63;;;18.30;99.90;;;;;;5014578;28;20449;-73
2023/06/11 01:29:45;;;;;;;9.07;7.43;;;18.30;99.90;;;;;;5014535;28;20081;-73
2023/06/11 01:32:12;;;;;;;8.98;7.20;;;18.30;99.90;;;;;;4998121;28;20053;-72
2023/06/11 01:34:41;;;;;;;10.98;7.80;;;18.30;99.90;;;;;;5014156;28;20132;-72
2023/06/11 01:37:11;;;;;;;10.43;7.57;;;18.20;99.90;;;;;;5014165;28;20041;-72
2023/06/11 01:39:37;;;;;;;9.82;7.78;;;18.20;99.90;;;;;;5014112;28;20045;-72
2023/06/11 01:42:05;;;;;;;10.65;8.23;;;18.20;99.90;;;;;;5014281;28;20510;-72
2023/06/11 01:44:32;;;;;;;11.10;8.10;;;18.10;99.90;;;;;;4982122;28;20052;-72
2023/06/11 01:46:58;;;;;;;9.13;6.80;;;18.10;99.90;;;;;;5013892;28;20049;-72
2023/06/11 01:49:24;;;;;;;9.77;7.32;;;18.10;99.90;;;;;;5014218;28;20481;-73
2023/06/11 01:51:50;;;;;;;12.43;8.10;;;18.10;99.90;;;;;;4997545;28;20049;-72
2023/06/11 01:54:17;;;;;;;12.27;8.23;;;18.10;99.90;;;;;;4997401;28;20038;-72
2023/06/11 01:56:43;;;;;;;9.50;7.57;;;18.10;99.90;;;;;;4997902;28;20044;-72
2023/06/11 01:59:12;;;;;;;12.02;8.20;;;18.00;99.90;;;;;;4997675;28;20041;-72
2023/06/11 02:01:37;;;;;;;10.45;8.20;;;18.00;99.90;;;;;;4998076;28;20494;-73
2023/06/11 02:04:04;;;;;;;11.40;8.52;;;17.90;99.90;;;;;;5013559;28;20049;-72
2023/06/11 02:06:39;;;;;;;11.45;9.10;;;17.90;99.90;;;;;;4997928;28;20050;-73
2023/06/11 02:09:04;;;;;;;10.02;8.48;;;17.80;99.90;;;;;;4997183;28;20073;-71
2023/06/11 02:11:30;;;;;;;8.25;6.65;;;17.80;99.90;;;;;;5013352;28;20077;-73
2023/06/11 02:13:56;;;;;;;9.48;7.93;;;17.80;99.90;;;;;;4996917;28;20550;-72
2023/06/11 02:16:22;;;;;;;9.82;7.70;;;17.80;99.90;;;;;;5013635;28;20041;-72
2023/06/11 02:18:47;;;;;;;8.75;7.10;;;17.70;99.90;;;;;;5013337;28;20075;-73
2023/06/11 02:21:13;;;;;;;13.07;8.88;;;17.80;99.90;;;;;;5013509;28;20034;-72
2023/06/11 02:23:39;;;;;;;9.02;7.38;;;17.70;99.90;;;;;;5013098;28;20049;-72
2023/06/11 02:26:04;;;;;;;9.75;7.75;;;17.70;99.90;;;;;;4996920;28;20068;-72
2023/06/11 02:28:30;;;;;;;9.82;8.27;;;17.70;99.90;;;;;;4997146;28;20045;-73
2023/06/11 02:30:56;;;;;;;11.20;8.40;;;17.70;99.90;;;;;;5013126;28;20144;-73
2023/06/11 02:33:22;;;;;;;10.15;8.85;;;17.80;99.90;;;;;;5012864;28;20053;-73
2023/06/11 02:35:47;;;;;;;10.45;7.72;;;17.70;99.90;;;;;;5012964;28;20068;-72
2023/06/11 02:38:13;;;;;;;9.52;7.90;;;17.70;99.90;;;;;;5013097;28;20526;-72
2023/06/11 02:40:39;;;;;;;9.05;7.60;;;17.70;99.90;;;;;;4980451;28;20115;-73
2023/06/11 02:43:05;;;;;;;9.10;6.70;;;17.60;99.90;;;;;;4996647;28;20132;-73
2023/06/11 02:45:30;;;;;;;9.57;8.57;;;17.60;99.90;;;;;;4996760;28;20053;-72
2023/06/11 02:47:56;;;;;;;12.40;9.63;;;17.70;99.90;;;;;;4980338;28;20056;-72
2023/06/11 02:50:22;;;;;;;10.77;8.13;;;17.60;99.90;;;;;;5012689;28;20140;-72
2023/06/11 02:52:48;;;;;;;9.30;7.45;;;17.50;99.90;;;;;;5012871;28;20044;-72
2023/06/11 02:55:13;;;;;;;12.30;8.55;;;17.50;99.90;;;;;;5012592;28;20095;-73
2023/06/11 02:57:39;;;;;;;9.48;8.13;;;17.60;99.90;;;;;;4996280;28;20044;-72
2023/06/11 03:00:06;;;;;;;9.68;7.63;;;17.60;99.90;;;;;;5012555;28;20052;-72
2023/06/11 03:02:32;;;;;;;10.23;9.13;;;17.50;99.90;;;;;;4996729;28;20038;-72
2023/06/11 03:04:58;;;;;;;10.13;8.93;;;17.50;99.90;;;;;;4996140;28;20042;-73
2023/06/11 03:07:24;;;;;;;10.02;8.55;;;17.50;99.90;;;;;;5012439;28;20038;-72
2023/06/11 03:09:49;;;;;;;10.25;7.55;;;17.50;99.90;;;;;;4979781;28;20380;-73
2023/06/11 03:12:16;;;;;;;11.30;8.57;;;17.50;99.90;;;;;;4996071;28;20092;-73
2023/06/11 03:14:41;;;;;;;12.27;10.38;;;17.50;99.90;;;;;;4996281;28;20048;-72
2023/06/11 03:17:07;;;;;;;12.68;10.13;;;17.50;99.90;;;;;;4979853;28;20046;-72
2023/06/11 03:19:33;;;;;;;11.13;8.95;;;17.50;99.90;;;;;;4979857;28;20073;-72
2023/06/11 03:22:10;;;;;;;11.05;9.77;;;17.40;99.90;;;;;;4979918;28;20034;-72
2023/06/11 03:24:36;;;;;;;11.02;8.82;;;17.40;99.90;;;;;;5011602;28;20046;-72
2023/06/11 03:27:01;;;;;;;13.77;10.23;;;17.30;99.90;;;;;;5012071;28;20382;-73
2023/06/11 03:29:27;;;;;;;12.05;10.75;;;17.40;99.90;;;;;;4996162;28;20455;-72
2023/06/11 03:31:53;;;;;;;11.32;9.23;;;17.40;99.90;;;;;;4995643;28;20085;-72
2023/06/11 03:34:19;;;;;;;11.90;10.70;;;17.40;99.90;;;;;;5012043;28;20050;-72
2023/06/11 03:36:45;;;;;;;10.98;9.23;;;17.40;99.90;;;;;;4995867;28;20038;-72
2023/06/11 03:39:11;;;;;;;13.25;10.80;;;17.30;99.90;;;;;;4980158;28;20440;-72
2023/06/11 03:41:36;;;;;;;14.80;11.50;;;17.30;99.90;;;;;;4996057;28;20049;-74
2023/06/11 03:44:02;;;;;;;11.18;9.98;;;17.30;99.90;;;;;;5012001;28;20050;-72
2023/06/11 03:46:28;;;;;;;11.43;10.23;;;17.30;99.90;;;;;;4995760;28;20504;-73
2023/06/11 03:48:54;;;;;;;14.50;10.57;;;17.30;99.90;;;;;;5012254;28;20567;-72
2023/06/11 03:51:23;;;;;;;11.80;10.27;;;17.30;99.90;;;;;;4964777;28;20042;-73
2023/06/11 03:53:48;;;;;;;12.50;10.57;;;17.30;99.90;;;;;;4979287;28;20509;-72
2023/06/11 03:56:14;;;;;;;11.77;10.35;;;17.30;99.90;;;;;;4995692;28;20038;-72
2023/06/11 03:58:43;;;;;;;11.07;9.45;;;17.40;99.90;;;;;;4995991;28;20091;-72
2023/06/11 04:01:08;;;;;;;12.55;10.40;;;17.40;99.90;;;;;;4995662;28;20038;-73
2023/06/11 04:03:35;;;;;;;13.43;11.13;;;17.40;99.90;;;;;;4979664;28;20045;-72
2023/06/11 04:06:07;;;;;;;12.65;10.65;;;17.40;99.90;;;;;;4979995;28;20042;-74
2023/06/11 04:08:33;;;;;;;12.88;10.60;;;17.40;99.90;;;;;;5011766;28;20077;-73
2023/06/11 04:10:59;;;;;;;11.55;10.35;;;17.40;99.90;;;;;;5011738;28;20088;-73
2023/06/11 04:13:25;;;;;;;11.85;10.60;;;17.50;99.90;;;;;;4979362;28;20042;-73
2023/06/11 04:15:50;;;;;;;12.57;10.70;;;17.40;99.90;;;;;;4979552;28;20045;-73
2023/06/11 04:18:16;;;;;;;13.48;11.63;;;17.50;99.90;;;;;;5011901;28;20046;-73
2023/06/11 04:20:42;;;;;;;12.25;10.95;;;17.50;99.90;;;;;;5011744;28;20569;-73
2023/06/11 04:23:08;;;;;;;13.88;10.82;;;17.60;99.90;;;;;;4995212;28;20042;-72
2023/06/11 04:25:37;;;;;;;12.68;11.05;;;17.60;99.90;;;;;;5011592;28;20128;-72
2023/06/11 04:28:03;;;;;;;13.07;10.70;;;17.80;99.90;;;;;;4995993;28;20417;-72
2023/06/11 04:30:31;;;;;;;13.07;11.27;;;17.80;99.90;;;;;;5011593;28;20046;-73
2023/06/11 04:32:57;;;;;;;12.65;11.35;;;17.80;99.90;;;;;;5011330;28;20137;-74
2023/06/11 04:35:23;;;;;;;12.98;11.40;;;17.80;99.90;;;;;;5012771;28;20042;-73
2023/06/11 04:37:49;;;;;;;12.55;11.35;;;17.80;99.90;;;;;;5015223;28;20056;-73
2023/06/11 04:40:17;;;;;;;11.75;10.55;;;17.90;99.90;;;;;;5015282;28;20038;-72
2023/06/11 04:42:44;;;;;;;12.30;11.00;;;17.90;99.90;;;;;;5015218;28;20034;-73
2023/06/11 04:45:10;;;;;;;12.35;11.05;;;18.00;99.90;;;;;;4998845;28;20081;-72
2023/06/11 04:47:37;;;;;;;12.75;10.93;;;18.10;99.90;;;;;;4987094;28;20103;-72
2023/06/11 04:50:04;;;;;;;14.82;11.43;;;18.20;99.90;;;;;;4985258;28;20048;-73
2023/06/11 04:52:42;;;;;;;13.15;11.80;;;18.40;99.90;;;;;;5015127;28;20046;-72
2023/06/11 04:55:11;;;;;;;13.10;11.70;;;18.60;99.90;;;;;;5015198;28;20458;-72
2023/06/11 04:57:38;;;;;;;13.80;12.30;;;18.80;99.90;;;;;;4999023;28;20051;-73
2023/06/11 05:00:08;;;;;;;13.07;11.15;;;19.30;99.90;;;;;;5015083;28;20506;-72
2023/06/11 05:02:38;;;;;;;13.35;11.10;;;19.60;99.90;;;;;;5014780;28;20042;-72
2023/06/11 05:05:08;;;;;;;13.48;11.20;;;19.80;99.90;;;;;;4982380;28;20133;-72
2023/06/11 05:07:33;;;;;;;13.75;11.13;;;20.10;99.90;;;;;;4998444;28;20092;-72
2023/06/11 05:10:00;;;;;;;14.27;11.40;;;20.60;99.90;;;;;;4998337;28;20398;-72
2023/06/11 05:12:26;;;;;;;13.65;11.63;;;21.10;99.90;;;;;;5014622;28;20042;-72
2023/06/11 05:14:52;;;;;;;12.45;10.20;;;21.10;99.90;;;;;;4998312;28;20047;-72
2023/06/11 05:17:18;;;;;;;14.32;11.70;;;21.20;99.90;;;;;;5014545;28;20124;-73
2023/06/11 05:19:47;;;;;;;12.32;10.50;;;21.80;99.90;;;;;;4983316;28;20034;-74
2023/06/11 05:22:12;;;;;;;12.40;10.00;;;21.80;99.90;;;;;;4965856;28;20041;-73
2023/06/11 05:24:41;;;;;;;12.70;10.23;;;22.20;99.90;;;;;;4998170;28;20057;-72
2023/06/11 05:27:07;;;;;;;11.57;9.77;;;21.90;99.90;;;;;;4966779;28;20042;-72
2023/06/11 05:29:33;;;;;;;10.63;9.10;;;22.20;99.90;;;;;;4981718;28;20128;-72
2023/06/11 05:32:00;;;;;;;12.13;10.27;;;22.30;99.90;;;;;;5014028;28;20536;-74
2023/06/11 05:34:26;;;;;;;11.25;9.73;;;22.50;99.90;;;;;;4982118;28;20058;-72
2023/06/11 05:36:52;;;;;;;11.73;9.55;;;23.30;99.90;;;;;;5014232;28;20100;-72
2023/06/11 05:39:19;;;;;;;12.48;10.05;;;22.90;99.90;;;;;;4981768;28;20441;-72
2023/06/11 05:41:44;;;;;;;10.88;8.77;;;23.10;99.90;;;;;;5014340;28;20409;-73
2023/06/11 05:44:10;;;;;;;12.25;9.95;;;23.30;99.90;;;;;;4981994;28;20105;-73
2023/06/11 05:46:36;;;;;;;13.55;9.30;;;23.60;99.80;;;;;;4981485;28;20474;-73
2023/06/11 05:49:02;;;;;;;10.52;8.88;;;23.80;99.00;;;;;;4998027;28;20041;-74
2023/06/11 05:51:28;;;;;;;13.90;9.82;;;24.30;98.10;;;;;;5013905;28;20040;-73
2023/06/11 05:53:54;;;;;;;11.20;9.57;;;24.20;96.40;;;;;;4997664;28;20038;-73
2023/06/11 05:56:21;;;;;;;12.90;9.13;;;24.00;96.10;;;;;;4997521;28;20045;-73
2023/06/11 05:58:47;;;;;;;10.88;8.63;;;23.80;98.30;;;;;;4997978;28;20044;-73
2023/06/11 06:01:13;;;;;;;10.80;8.20;;;23.70;97.20;;;;;;4997426;28;20042;-74
2023/06/11 06:03:39;;;;;;;10.43;9.00;;;23.90;98.60;;;;;;4997555;28;20038;-74
2023/06/11 06:06:08;;;;;;;13.00;8.27;;;24.20;96.00;;;;;;4997370;28;20046;-74
2023/06/11 06:08:35;;;;;;;11.40;8.80;;;24.50;96.40;;;;;;4997775;28;20077;-74
2023/06/11 06:11:01;;;;;;;12.57;8.10;;;24.90;93.30;;;;;;4997113;28;20049;-74
2023/06/11 06:13:30;;;;;;;10.55;8.15;;;25.10;94.70;;;;;;4997084;28;20406;-74
2023/06/11 06:15:58;;;;;;;11.55;8.38;;;24.80;93.30;;;;;;4997480;28;20045;-74
2023/06/11 06:18:24;;;;;;;13.15;8.40;;;25.30;91.70;;;;;;4981207;28;20384;-74
2023/06/11 06:20:50;;;;;;;10.60;8.23;;;25.50;91.50;;;;;;4997366;28;20092;-74
2023/06/11 06:23:16;;;;;;;9.63;8.30;;;25.10;92.10;;;;;;4981059;28;20508;-74
2023/06/11 06:25:42;;;;;;;9.80;7.60;;;25.30;91.90;;;;;;5013259;28;20050;-74
2023/06/11 06:28:07;;;;;;;10.80;7.97;;;25.90;91.90;;;;;;5013075;28;20158;-74
2023/06/11 06:30:33;;;;;;;9.90;8.07;;;26.20;90.20;;;;;;4996909;28;20494;-74
2023/06/11 06:33:00;;;;;;;10.32;7.60;;;26.70;86.80;;;;;;4996537;28;20457;-74
2023/06/11 06:35:26;;;;;;;9.82;7.80;;;26.80;85.60;;;;;;4996813;28;20103;-74
2023/06/11 06:37:52;;;;;;;12.13;8.02;;;26.90;84.70;;;;;;5013042;28;20569;-74
2023/06/11 06:40:18;;;;;;;8.77;7.78;;;26.90;81.70;;;;;;4996654;28;20042;-73
2023/06/11 06:42:46;;;;;;;9.20;7.45;;;26.70;81.10;;;;;;4980501;28;20073;-73
2023/06/11 06:45:12;;;;;;;10.50;7.70;;;26.40;82.80;;;;;;5012866;28;20042;-74
2023/06/11 06:47:38;;;;;;;9.73;7.90;;;26.60;84.10;;;;;;4996533;28;20045;-73
2023/06/11 06:50:04;;;;;;;11.55;7.95;;;26.80;80.60;;;;;;5013008;28;20096;-73
2023/06/11 06:52:30;;;;;;;12.93;7.63;;;26.90;80.60;;;;;;4996608;28;20107;-74
2023/06/11 06:54:56;;;;;;;9.85;7.03;;;26.80;82.20;;;;;;4996461;28;20526;-74
2023/06/11 06:57:22;;;;;;;11.05;7.50;;;27.30;81.60;;;;;;4996437;28;20566;-73
2023/06/11 06:59:48;;;;;;;8.57;7.43;;;27.60;78.50;;;;;;5011953;28;20486;-74
2023/06/11 07:02:14;;;;;;;9.07;7.47;;;28.00;76.10;;;;;;5012644;28;20044;-74
2023/06/11 07:04:41;;;;;;;8.93;7.18;;;27.90;74.90;;;;;;4964087;28;20039;-73
2023/06/11 07:07:07;;;;;;;8.52;7.00;;;27.40;76.60;;;;;;5012508;28;20045;-73
2023/06/11 07:09:33;;;;;;;10.20;7.72;;;27.60;76.00;;;;;;4996311;28;20045;-73
2023/06/11 07:11:58;;;;;;;10.07;7.10;;;27.50;74.80;;;;;;5012463;28;20051;-74
2023/06/11 07:14:24;;;;;;;10.35;7.05;;;27.60;76.70;;;;;;5012366;28;20169;-74
2023/06/11 07:16:50;;;;;;;9.55;6.90;;;27.90;74.60;;;;;;4996379;28;20042;-74
2023/06/11 07:19:16;;;;;;;10.00;7.28;;;28.10;75.40;;;;;;5012741;28;20041;-74
2023/06/11 07:21:41;;;;;;;9.82;7.45;;;28.30;72.70;;;;;;5012235;28;20041;-74
2023/06/11 07:24:08;;;;;;;11.20;7.50;;;28.20;71.10;;;;;;5011760;28;20050;-74
2023/06/11 07:26:34;;;;;;;9.07;7.10;;;28.40;70.50;;;;;;5012261;28;20045;-74
2023/06/11 07:29:00;;;;;;;9.05;7.05;;;28.30;72.30;;;;;;5012215;28;20042;-73
2023/06/11 07:31:29;;;;;;;7.85;6.53;;;28.50;71.40;;;;;;4980352;28;20042;-73
2023/06/11 07:33:58;;;;;;;10.02;7.20;;;28.70;71.40;;;;;;4979703;28;20054;-73
2023/06/11 07:36:24;;;;;;;10.48;7.82;;;29.00;69.40;;;;;;4980347;28;20092;-74
2023/06/11 07:38:49;;;;;;;9.82;7.07;;;28.90;67.70;;;;;;4995802;28;20042;-74
2023/06/11 07:41:15;;;;;;;8.57;7.22;;;28.50;69.10;;;;;;5012379;28;20497;-74
2023/06/11 07:43:41;;;;;;;9.70;7.32;;;28.60;69.70;;;;;;5011983;28;20050;-74
2023/06/11 07:46:07;;;;;;;8.73;6.63;;;28.40;71.00;;;;;;4995761;28;20048;-74
2023/06/11 07:48:41;;;;;;;9.60;7.55;;;28.40;71.60;;;;;;4995668;28;20502;-74
2023/06/11 07:51:06;;;;;;;9.70;7.30;;;28.30;68.80;;;;;;4995656;28;20108;-74
2023/06/11 07:53:33;;;;;;;9.50;7.43;;;28.50;69.80;;;;;;5011849;28;20556;-73
2023/06/11 07:55:59;;;;;;;9.35;7.20;;;28.70;69.60;;;;;;5011935;28;20046;-73
2023/06/11 07:58:28;;;;;;;8.32;6.72;;;28.80;68.70;;;;;;4995629;28;20045;-73
2023/06/11 08:00:53;;;;;;;11.52;7.05;;;28.90;69.70;;;;;;4995465;28;20038;-74
2023/06/11 08:03:19;;;;;;;8.35;7.35;;;29.00;68.60;;;;;;4995822;28;20073;-73
2023/06/11 08:05:45;;;;;;;9.48;6.95;;;28.90;68.10;;;;;;5011933;28;20054;-73
2023/06/11 08:08:11;;;;;;;9.90;7.03;;;29.10;67.50;;;;;;5011973;28;20042;-73
2023/06/11 08:10:37;;;;;;;8.82;7.03;;;29.30;65.80;;;;;;4997178;28;20445;-74
2023/06/11 08:13:04;;;;;;;8.02;6.57;;;29.20;65.00;;;;;;5015684;28;20088;-74
2023/06/11 08:15:30;;;;;;;7.75;6.18;;;29.30;66.10;;;;;;5015748;28;20088;-74
2023/06/11 08:17:56;;;;;;;62.85;9.75;;;29.40;66.10;;;;;;4999453;28;20057;-74
2023/06/11 08:20:22;;;;;;;9.23;6.32;;;29.50;63.90;;;;;;4999362;28;20456;-74
2023/06/11 08:22:48;;;;;;;11.43;6.90;;;29.40;65.30;;;;;;4983012;28;20074;-74
2023/06/11 08:25:13;;;;;;;8.98;6.47;;;29.50;65.30;;;;;;4999181;28;20490;-72
2023/06/11 08:27:39;;;;;;;9.43;6.93;;;29.40;64.60;;;;;;4999137;28;20129;-72
2023/06/11 08:30:09;;;;;;;9.35;6.60;;;29.30;63.60;;;;;;5000065;28;20037;-71
2023/06/11 08:32:35;;;;;;;9.48;6.50;;;29.20;64.50;;;;;;5015121;28;20058;-73
2023/06/11 08:35:00;;;;;;;10.80;6.65;;;29.20;64.80;;;;;;4982851;28;20068;-74
2023/06/11 08:37:26;;;;;;;8.85;6.80;;;29.30;64.30;;;;;;5015699;28;20465;-74
2023/06/11 08:39:52;;;;;;;8.15;6.60;;;29.30;63.50;;;;;;5015196;28;20042;-74
2023/06/11 08:42:18;;;;;;;8.20;6.32;;;29.50;64.40;;;;;;5015263;28;20156;-74
2023/06/11 08:44:43;;;;;;;8.43;6.50;;;29.60;64.60;;;;;;5015156;28;20038;-74
2023/06/11 08:47:10;;;;;;;8.05;6.20;;;29.70;63.90;;;;;;4999191;28;20064;-73
2023/06/11 08:49:39;;;;;;;7.78;6.53;;;29.90;64.10;;;;;;5015142;28;20045;-73
2023/06/11 08:52:06;;;;;;;9.20;6.22;;;30.00;61.90;;;;;;4998571;28;20046;-73
2023/06/11 08:54:32;;;;;;;10.25;6.65;;;29.90;63.60;;;;;;4988356;28;20050;-73
2023/06/11 08:56:58;;;;;;;8.30;6.57;;;30.00;62.10;;;;;;5015270;28;20048;-73
2023/06/11 08:59:24;;;;;;;8.73;6.45;;;30.20;61.90;;;;;;5014940;28;20037;-73
2023/06/11 09:01:53;;;;;;;9.02;6.22;;;30.50;63.50;;;;;;4982628;28;20048;-73
2023/06/11 09:04:20;;;;;;;9.60;6.35;;;30.70;61.60;;;;;;5015090;28;20037;-73
2023/06/11 09:07:21;;;;;;;11.73;6.93;;;30.90;61.20;;;;;;4998696;28;20128;-73
2023/06/11 09:10:02;;;;;;;10.10;6.40;;;31.10;59.60;;;;;;5014761;28;20041;-73
2023/06/11 09:12:27;;;;;;;9.23;6.43;;;31.10;58.50;;;;;;5015011;28;20034;-73
2023/06/11 09:14:53;;;;;;;8.63;6.45;;;31.10;57.60;;;;;;5014550;28;20088;-73
2023/06/11 09:17:19;;;;;;;8.38;6.10;;;31.00;57.30;;;;;;5014855;28;20042;-73
2023/06/11 09:19:46;;;;;;;8.73;6.43;;;30.80;59.10;;;;;;4982285;28;20161;-74
2023/06/11 09:22:12;;;;;;;10.63;6.50;;;31.10;57.30;;;;;;4997114;28;20069;-74
2023/06/11 09:24:37;;;;;;;8.20;6.10;;;31.10;57.30;;;;;;4982360;28;20038;-74
2023/06/11 09:27:11;;;;;;;10.60;6.22;;;31.20;56.90;;;;;;4998088;28;20079;-74
2023/06/11 09:29:43;;;;;;;8.32;6.28;;;31.40;56.20;;;;;;5014658;28;20045;-74
2023/06/11 09:32:09;;;;;;;7.57;5.85;;;31.30;55.00;;;;;;5014304;28;20096;-74
2023/06/11 09:34:36;;;;;;;8.98;6.00;;;31.40;56.70;;;;;;5014178;28;20132;-74
2023/06/11 09:37:03;;;;;;;7.75;6.68;;;31.40;57.30;;;;;;4998024;28;20163;-74
2023/06/11 09:39:35;;;;;;;8.43;6.28;;;31.20;55.10;;;;;;4998486;28;20042;-74
2023/06/11 09:42:01;;;;;;;8.25;5.78;;;31.40;56.90;;;;;;4981791;28;20040;-74
2023/06/11 09:44:31;;;;;;;8.10;5.65;;;31.50;56.20;;;;;;4998075;28;20037;-73
2023/06/11 09:46:57;;;;;;;8.98;6.03;;;31.50;54.50;;;;;;4997714;28;20046;-73
2023/06/11 09:49:24;;;;;;;8.35;6.00;;;31.50;54.50;;;;;;4981665;28;20460;-73
2023/06/11 09:51:52;;;;;;;8.80;5.68;;;31.60;54.50;;;;;;5013885;28;20054;-73
2023/06/11 09:54:20;;;;;;;8.82;6.00;;;31.70;54.00;;;;;;5015093;28;20056;-73
2023/06/11 09:56:54;;;;;;;9.00;5.90;;;31.40;52.40;;;;;;4982030;28;20041;-74
2023/06/11 09:59:23;;;;;;;9.13;6.00;;;31.20;53.90;;;;;;4981934;28;20048;-74
2023/06/11 10:01:50;;;;;;;7.97;6.18;;;31.40;54.30;;;;;;4997324;28;20048;-73
2023/06/11 10:04:19;;;;;;;8.98;5.75;;;31.20;53.30;;;;;;5013906;28;20474;-73
2023/06/11 10:06:49;;;;;;;7.03;5.38;;;31.20;54.00;;;;;;5013676;28;20069;-73
2023/06/11 10:09:19;;;;;;;7.97;5.35;;;31.50;52.20;;;;;;5013949;28;20405;-74
2023/06/11 10:11:46;;;;;;;8.23;5.50;;;31.80;52.00;;;;;;4965535;28;20050;-74
2023/06/11 10:14:14;;;;;;;8.80;5.90;;;31.80;51.80;;;;;;4997226;28;20046;-74
2023/06/11 10:16:40;;;;;;;8.02;5.35;;;31.50;50.30;;;;;;4997154;28;20038;-74
2023/06/11 10:19:10;;;;;;;10.15;5.70;;;31.80;50.00;;;;;;4997423;28;20038;-74
2023/06/11 10:21:44;;;;;;;7.35;4.72;;;31.80;49.20;;;;;;5013353;28;20042;-73
2023/06/11 10:24:26;;;;;;;8.23;5.35;;;32.10;48.60;;;;;;5013642;28;20493;-73
2023/06/11 10:27:12;;;;;;;6.78;5.00;;;32.10;48.70;;;;;;5013246;28;20060;-73
2023/06/11 10:29:48;;;;;;;7.82;5.00;;;32.20;46.10;;;;;;5013211;28;20048;-73
2023/06/11 10:32:19;;;;;;;7.28;4.90;;;32.20;46.10;;;;;;4996912;28;20409;-74
2023/06/11 10:35:00;;;;;;;8.75;5.45;;;32.30;48.10;;;;;;5012804;28;20050;-74
2023/06/11 10:37:31;;;;;;;;;;;32.40;47.20;;;;;;5013832;28;20128;-73
2023/06/11 10:39:57;;;;;;;6.67;5.30;;;32.40;46.80;;;;;;5013065;28;19921;-73
2023/06/11 10:42:33;;;;;;;7.85;5.50;;;32.40;45.00;;;;;;4996703;28;20042;-74
2023/06/11 10:45:00;;;;;;;12.73;4.88;;;32.50;46.60;;;;;;5012949;28;20076;-74
2023/06/11 10:47:29;;;;;;;8.02;4.60;;;32.50;43.30;;;;;;4996906;28;20547;-74
2023/06/11 10:50:08;;;;;;;7.85;5.10;;;32.40;43.00;;;;;;5010488;28;20080;-74
2023/06/11 10:52:55;;;;;;;7.55;4.68;;;32.40;43.30;;;;;;4996295;28;20045;-74
2023/06/11 10:55:22;;;;;;;7.95;4.65;;;32.60;43.00;;;;;;5012803;28;20120;-74
2023/06/11 10:57:57;;;;;;;7.28;5.22;;;32.60;41.40;;;;;;5012337;28;20049;-74
2023/06/11 11:00:28;;;;;;;7.72;5.00;;;32.50;42.50;;;;;;5012754;28;20052;-74
2023/06/11 11:02:56;;;;;;;7.18;4.65;;;32.20;43.00;;;;;;5012668;28;20126;-74
2023/06/11 11:05:22;;;;;;;7.78;4.97;;;32.40;41.40;;;;;;4996283;28;20095;-74
2023/06/11 11:07:48;;;;;;;8.55;5.00;;;32.30;43.60;;;;;;5012817;28;20092;-73
2023/06/11 11:10:19;;;;;;;8.10;5.10;;;32.40;41.10;;;;;;5014063;28;20081;-73
2023/06/11 11:12:48;;;;;;;7.55;5.10;;;32.40;41.10;;;;;;5012744;28;20037;-73
2023/06/11 11:15:15;;;;;;;9.13;4.93;;;32.20;42.10;;;;;;5012792;28;20044;-73
2023/06/11 11:17:44;;;;;;;7.38;5.15;;;32.10;42.70;;;;;;5012545;28;20149;-74
2023/06/11 11:20:17;;;;;;;8.52;5.00;;;32.10;41.30;;;;;;5012323;28;20153;-73
2023/06/11 11:22:52;;;;;;;6.97;4.78;;;32.10;42.50;;;;;;5012714;28;20046;-73
2023/06/11 11:25:23;;;;;;;8.52;4.85;;;31.90;41.40;;;;;;5012400;28;20037;-73
2023/06/11 11:27:49;;;;;;;8.05;5.03;;;32.00;41.10;;;;;;5012310;28;20125;-73
2023/06/11 11:30:17;;;;;;;8.70;5.10;;;32.20;42.30;;;;;;5012254;28;20125;-74
2023/06/11 11:32:43;;;;;;;9.07;4.90;;;32.20;42.00;;;;;;5012073;28;20062;-73
2023/06/11 11:35:12;;;;;;;6.90;4.97;;;31.90;42.00;;;;;;5012132;28;20125;-73
2023/06/11 11:37:37;;;;;;;6.55;5.05;;;32.00;40.70;;;;;;5012277;28;20056;-73
2023/06/11 11:40:07;;;;;;;8.20;5.00;;;31.90;41.20;;;;;;5012179;28;20034;-73
2023/06/11 11:42:44;;;;;;;7.32;4.80;;;32.40;42.20;;;;;;5012071;28;20038;-73
2023/06/11 11:45:13;;;;;;;7.88;5.07;;;32.40;39.00;;;;;;5011795;28;20125;-73
2023/06/11 11:47:41;;;;;;;7.22;4.85;;;32.30;38.40;;;;;;4995974;28;20045;-73
2023/06/11 11:50:17;;;;;;;8.38;5.20;;;32.10;39.80;;;;;;5012055;28;20082;-73
2023/06/11 11:52:45;;;;;;;7.85;5.20;;;32.20;40.50;;;;;;5011907;28;20116;-73
2023/06/11 11:55:11;;;;;;;7.85;5.03;;;32.20;40.20;;;;;;5012259;28;20529;-73
2023/06/11 11:57:40;;;;;;;11.07;5.03;;;32.30;40.40;;;;;;5012278;28;20073;-73
2023/06/11 12:00:10;;;;;;;7.93;5.20;;;32.40;39.10;;;;;;5011988;28;20123;-73
2023/06/11 12:02:42;;;;;;;8.90;5.15;;;32.20;39.40;;;;;;5011971;28;20046;-74
2023/06/11 12:05:13;;;;;;;7.95;5.03;;;32.30;40.70;;;;;;5011911;28;20046;-74
2023/06/11 12:07:38;;;;;;;7.75;5.03;;;32.20;38.50;;;;;;5012123;28;20108;-73
2023/06/11 12:10:05;;;;;;;8.35;5.03;;;32.00;39.20;;;;;;5012109;28;20077;-74
2023/06/11 12:12:31;;;;;;;8.00;5.13;;;32.10;38.20;;;;;;4995909;28;20084;-73
2023/06/11 12:14:56;;;;;;;7.88;5.30;;;32.30;38.30;;;;;;5011665;28;20085;-73
2023/06/11 12:17:22;;;;;;;9.02;4.88;;;32.40;39.40;;;;;;5011827;28;20042;-73
2023/06/11 12:19:48;;;;;;;8.05;5.20;;;32.40;38.30;;;;;;5011987;28;20044;-74
2023/06/11 12:22:13;;;;;;;8.73;5.20;;;32.10;40.70;;;;;;5012072;28;20053;-73
2023/06/11 12:24:39;;;;;;;7.88;4.78;;;32.10;38.40;;;;;;5011690;28;20130;-73
2023/06/11 12:27:06;;;;;;;8.00;5.20;;;32.00;39.80;;;;;;5011657;28;20056;-73
2023/06/11 12:29:32;;;;;;;7.93;5.57;;;32.00;40.90;;;;;;4995464;28;20050;-73
2023/06/11 12:31:58;;;;;;;8.38;5.32;;;32.20;40.70;;;;;;4995337;28;20064;-74
2023/06/11 12:34:23;;;;;;;8.57;5.40;;;32.10;39.80;;;;;;5011687;28;20042;-75
2023/06/11 12:36:51;;;;;;;9.20;5.63;;;32.10;40.80;;;;;;5011498;28;20088;-74
2023/06/11 12:39:16;;;;;;;7.88;5.30;;;32.10;39.80;;;;;;4995485;28;20437;-73
2023/06/11 12:41:42;;;;;;;7.50;5.53;;;32.10;40.80;;;;;;5011541;28;20053;-73
2023/06/11 12:44:08;;;;;;;9.13;5.72;;;32.10;41.40;;;;;;5011575;28;20488;-74